createdAt,value
2017-03-20T13:58:58.901Z,245
2017-03-20T13:59:59.085Z,245
2017-03-20T14:00:59.117Z,260
2017-03-20T14:01:59.016Z,295
2017-03-20T14:02:59.194Z,275
2017-03-20T14:03:59.602Z,250
2017-03-20T14:04:58.704Z,220
2017-03-20T14:05:58.920Z,245
2017-03-20T14:06:58.905Z,235
2017-03-20T14:07:59.232Z,235
2017-03-20T14:08:59.125Z,240
2017-03-20T14:09:58.998Z,240
2017-03-20T14:10:58.811Z,225
2017-03-20T14:11:58.841Z,200
2017-03-20T14:12:58.777Z,210
2017-03-20T14:13:58.785Z,195
2017-03-20T14:14:58.452Z,200
2017-03-20T14:15:58.424Z,190
2017-03-20T14:16:58.699Z,190
2017-03-20T14:17:58.689Z,195
2017-03-20T14:18:58.678Z,205
2017-03-20T14:19:58.656Z,205
2017-03-20T14:20:58.613Z,210
2017-03-20T14:21:58.800Z,195
2017-03-20T14:22:58.588Z,175
2017-03-20T14:23:58.566Z,165
2017-03-20T14:24:58.237Z,150
2017-03-20T14:25:58.511Z,145
2017-03-20T14:26:58.509Z,165
2017-03-20T14:27:58.689Z,210
2017-03-20T14:28:58.150Z,235
2017-03-20T14:29:58.490Z,250
2017-03-20T14:30:58.426Z,270
2017-03-20T14:31:58.407Z,305
2017-03-20T14:32:58.375Z,305
2017-03-20T14:33:58.359Z,290
2017-03-20T14:34:58.336Z,270
2017-03-20T14:35:58.315Z,260
2017-03-20T14:36:58.288Z,235
2017-03-20T14:37:57.977Z,215
2017-03-20T14:38:58.275Z,215
2017-03-20T14:39:58.237Z,215
2017-03-20T14:40:58.266Z,200
2017-03-20T14:41:57.903Z,200
2017-03-20T14:43:57.852Z,185
2017-03-20T14:44:58.136Z,185
2017-03-20T14:45:57.808Z,170
2017-03-20T14:46:58.091Z,155
2017-03-20T14:47:58.076Z,145
2017-03-20T14:48:57.811Z,145
2017-03-20T14:49:58.045Z,165
2017-03-20T14:50:58.024Z,165
2017-03-20T14:51:57.999Z,150
2017-03-20T14:52:58.167Z,150
2017-03-20T14:53:57.965Z,140
2017-03-20T14:54:57.938Z,160
2017-03-20T14:55:58.618Z,160
2017-03-20T14:56:57.891Z,130
2017-03-20T14:57:57.936Z,120
2017-03-20T14:58:57.845Z,150
2017-03-20T14:59:57.824Z,165
2017-03-20T15:00:57.814Z,165
2017-03-20T15:01:57.488Z,110
2017-03-20T15:02:57.822Z,125
2017-03-20T15:03:57.805Z,130
2017-03-20T15:04:58.490Z,135
2017-03-20T15:05:57.708Z,125
2017-03-20T15:06:57.686Z,120
2017-03-20T15:07:57.674Z,135
2017-03-20T15:08:57.683Z,130
2017-03-20T15:09:57.623Z,125
2017-03-20T15:10:57.608Z,120
2017-03-20T15:11:57.589Z,110
2017-03-20T15:12:58.530Z,105
2017-03-20T15:13:56.976Z,115
2017-03-20T15:14:57.534Z,125
2017-03-20T15:15:57.524Z,140
2017-03-20T15:16:57.500Z,130
2017-03-20T15:17:57.154Z,130
2017-03-20T15:18:57.384Z,150
2017-03-20T15:19:57.427Z,135
2017-03-20T15:20:57.092Z,135
2017-03-20T15:21:57.387Z,135
2017-03-20T15:22:57.358Z,120
2017-03-20T15:23:57.329Z,115
2017-03-20T15:24:57.356Z,115
2017-03-20T15:25:56.708Z,115
2017-03-20T15:26:57.274Z,95
2017-03-20T15:27:56.942Z,95
2017-03-20T15:28:56.650Z,100
2017-03-20T15:29:56.607Z,90
2017-03-20T15:30:57.198Z,95
2017-03-20T15:31:56.869Z,85
2017-03-20T15:32:56.840Z,90
2017-03-20T15:33:58.523Z,75
2017-03-20T15:34:57.114Z,75
2017-03-20T15:35:57.083Z,65
2017-03-20T15:36:57.102Z,65
2017-03-20T15:37:57.053Z,65
2017-03-20T15:38:57.024Z,65
2017-03-20T15:39:57.009Z,65
2017-03-20T15:40:56.979Z,70
2017-03-20T15:41:56.960Z,70
2017-03-20T15:42:56.962Z,80
2017-03-20T15:43:56.920Z,85
2017-03-20T15:44:56.927Z,70
2017-03-20T15:45:57.161Z,65
2017-03-20T15:46:56.850Z,70
2017-03-20T15:47:58.758Z,60
2017-03-20T15:48:56.503Z,60
2017-03-20T15:49:57.023Z,65
2017-03-20T15:50:56.782Z,65
2017-03-20T15:51:56.780Z,65
2017-03-20T15:52:56.719Z,60
2017-03-20T15:53:56.702Z,55
2017-03-20T15:54:56.672Z,70
2017-03-20T15:55:56.668Z,70
2017-03-20T15:56:56.636Z,70
2017-03-20T15:57:56.315Z,65
2017-03-20T15:58:56.591Z,70
2017-03-20T15:59:56.565Z,70
2017-03-20T16:00:56.550Z,60
2017-03-20T16:01:56.538Z,60
2017-03-20T16:02:56.566Z,60
2017-03-20T16:03:56.501Z,60
2017-03-20T16:04:56.523Z,65
2017-03-20T16:05:56.461Z,60
2017-03-20T16:06:55.827Z,50
2017-03-20T16:07:56.404Z,55
2017-03-20T16:08:56.091Z,55
2017-03-20T16:09:56.367Z,45
2017-03-20T16:10:56.370Z,40
2017-03-20T16:11:56.370Z,40
2017-03-20T16:12:55.697Z,40
2017-03-20T16:13:55.986Z,40
2017-03-20T16:14:56.251Z,40
2017-03-20T16:15:56.227Z,40
2017-03-20T16:16:55.933Z,40
2017-03-20T16:17:56.187Z,40
2017-03-20T16:18:55.860Z,40
2017-03-20T16:19:55.862Z,40
2017-03-20T16:20:56.143Z,40
2017-03-20T16:21:56.102Z,40
2017-03-20T16:22:56.136Z,35
2017-03-20T16:23:56.114Z,40
2017-03-20T16:24:56.052Z,35
2017-03-20T16:25:56.027Z,35
2017-03-20T16:26:56.004Z,30
2017-03-20T16:27:56.001Z,30
2017-03-20T16:28:55.989Z,35
2017-03-20T16:29:55.627Z,35
2017-03-20T16:30:55.901Z,30
2017-03-20T16:31:55.891Z,35
2017-03-20T16:32:55.882Z,35
2017-03-20T16:33:55.608Z,40
2017-03-20T16:34:55.832Z,40
2017-03-20T16:35:55.850Z,35
2017-03-20T16:36:55.789Z,35
2017-03-20T16:37:55.489Z,35
2017-03-20T16:38:55.757Z,35
2017-03-20T16:39:55.774Z,30
2017-03-20T16:40:55.416Z,25
2017-03-20T16:41:55.932Z,25
2017-03-20T16:42:55.356Z,20
2017-03-20T16:43:55.636Z,20
2017-03-20T16:44:55.326Z,20
2017-03-20T16:45:55.617Z,15
2017-03-20T16:46:55.580Z,20
2017-03-20T16:47:55.568Z,20
2017-03-20T16:48:55.527Z,15
2017-03-20T16:49:55.304Z,15
2017-03-20T16:50:55.544Z,15
2017-03-20T16:51:55.156Z,15
2017-03-20T16:52:55.132Z,15
2017-03-20T16:53:55.121Z,10
2017-03-20T16:54:55.457Z,10
2017-03-20T16:55:55.371Z,15
2017-03-20T16:56:55.366Z,10
2017-03-20T16:57:55.330Z,15
2017-03-20T16:58:56.019Z,10
2017-03-20T16:59:55.002Z,10
2017-03-20T17:00:56.233Z,10
2017-03-20T17:01:54.961Z,15
2017-03-20T17:02:55.278Z,20
2017-03-20T17:03:55.219Z,20
2017-03-20T17:04:55.193Z,20
2017-03-20T17:05:55.157Z,20
2017-03-20T17:06:55.154Z,25
2017-03-20T17:07:55.128Z,25
2017-03-20T17:08:55.101Z,25
2017-03-20T17:09:54.828Z,15
2017-03-20T17:10:55.080Z,20
2017-03-20T17:11:55.040Z,20
2017-03-20T17:12:55.018Z,25
2017-03-20T17:13:55.047Z,20
2017-03-20T17:14:54.685Z,20
2017-03-20T17:15:54.957Z,15
2017-03-20T17:16:54.935Z,15
2017-03-20T17:17:54.938Z,10
2017-03-20T17:18:54.591Z,10
2017-03-20T17:19:54.575Z,10
2017-03-20T17:20:54.847Z,5
2017-03-20T17:21:55.785Z,10
2017-03-20T17:22:54.797Z,10
2017-03-20T17:23:54.777Z,10
2017-03-20T17:24:54.775Z,10
2017-03-20T17:25:54.749Z,10
2017-03-20T17:26:54.721Z,5
2017-03-20T17:27:54.702Z,5
2017-03-20T17:28:54.678Z,5
2017-03-20T17:29:54.651Z,5
2017-03-20T17:30:54.639Z,5
2017-03-20T17:31:54.304Z,5
2017-03-20T17:32:54.316Z,0
2017-03-20T17:33:54.571Z,0
2017-03-20T17:34:54.565Z,0
2017-03-20T17:35:54.548Z,0
2017-03-20T17:36:54.517Z,0
2017-03-20T17:37:54.200Z,0
2017-03-20T17:38:54.507Z,0
2017-03-20T17:39:54.443Z,0
2017-03-20T17:40:54.120Z,0
2017-03-20T17:41:54.410Z,0
2017-03-20T17:42:53.760Z,0
2017-03-20T17:43:54.226Z,0
2017-03-20T17:44:54.027Z,0
2017-03-20T17:45:54.312Z,0
2017-03-20T17:46:53.993Z,0
2017-03-20T17:47:54.268Z,0
2017-03-20T17:48:54.326Z,0
2017-03-20T17:49:53.938Z,0
2017-03-20T17:50:53.600Z,0
2017-03-20T17:51:54.178Z,0
2017-03-20T17:52:53.577Z,0
2017-03-20T17:53:54.183Z,0
2017-03-20T17:54:54.130Z,0
2017-03-20T17:55:54.103Z,0
2017-03-20T17:56:54.331Z,0
2017-03-20T17:57:56.812Z,0
2017-03-20T17:58:54.037Z,0
2017-03-20T17:59:53.748Z,0
2017-03-20T18:00:53.741Z,0
2017-03-20T18:01:54.039Z,0
2017-03-20T18:02:53.704Z,0
2017-03-20T18:03:53.622Z,0
2017-03-20T18:04:53.603Z,0
2017-03-20T18:05:53.880Z,0
2017-03-20T18:06:53.353Z,0
2017-03-20T18:07:53.267Z,0
2017-03-20T18:08:53.873Z,0
2017-03-20T18:09:54.242Z,0
2017-03-20T18:10:53.792Z,0
2017-03-20T18:11:53.797Z,0
2017-03-20T18:12:53.745Z,0
2017-03-20T18:13:53.710Z,0
2017-03-20T18:14:53.689Z,0
2017-03-20T18:15:53.666Z,0
2017-03-20T18:16:53.662Z,0
2017-03-20T18:17:53.395Z,0
2017-03-20T18:18:54.380Z,0
2017-03-20T18:19:53.281Z,0
2017-03-20T18:20:53.544Z,0
2017-03-20T18:21:53.535Z,0
2017-03-20T18:22:53.530Z,0
2017-03-20T18:23:53.490Z,0
2017-03-20T18:24:53.207Z,0
2017-03-20T18:25:53.520Z,0
2017-03-20T18:26:53.165Z,0
2017-03-20T18:27:53.194Z,0
2017-03-20T18:28:53.156Z,0
2017-03-20T18:29:53.382Z,0
2017-03-20T18:30:54.352Z,0
2017-03-20T18:31:53.020Z,0
2017-03-20T18:32:53.342Z,0
2017-03-20T18:33:53.009Z,0
2017-03-20T18:34:53.021Z,0
2017-03-20T18:35:53.262Z,0
2017-03-20T18:36:53.249Z,0
2017-03-20T18:37:52.886Z,0
2017-03-20T18:38:53.160Z,0
2017-03-20T18:39:53.137Z,0
2017-03-20T18:40:53.114Z,0
2017-03-20T18:41:53.159Z,0
2017-03-20T18:42:53.407Z,0
2017-03-20T18:43:52.804Z,0
2017-03-20T18:44:52.736Z,0
2017-03-20T18:45:52.782Z,0
2017-03-20T18:46:52.743Z,0
2017-03-20T18:47:52.702Z,0
2017-03-20T18:48:52.691Z,0
2017-03-20T18:49:53.067Z,0
2017-03-20T18:50:52.641Z,0
2017-03-20T18:51:52.622Z,0
2017-03-20T18:52:53.125Z,0
2017-03-20T18:53:52.634Z,0
2017-03-20T18:54:52.879Z,0
2017-03-20T18:55:52.597Z,0
2017-03-20T18:56:52.497Z,0
2017-03-20T18:57:52.825Z,0
2017-03-20T18:58:52.731Z,0
2017-03-20T18:59:52.762Z,0
2017-03-20T19:00:52.701Z,0
2017-03-20T19:01:52.682Z,0
2017-03-20T19:02:52.336Z,0
2017-03-20T19:03:52.406Z,0
2017-03-20T19:04:52.327Z,0
2017-03-20T19:05:52.343Z,0
2017-03-20T19:06:52.579Z,0
2017-03-20T19:07:52.237Z,0
2017-03-20T19:08:52.215Z,0
2017-03-20T19:09:52.132Z,0
2017-03-20T19:10:52.521Z,0
2017-03-20T19:11:53.509Z,0
2017-03-20T19:12:52.445Z,0
2017-03-20T19:13:52.403Z,0
2017-03-20T19:14:52.385Z,0
2017-03-20T19:15:52.351Z,0
2017-03-20T19:16:52.107Z,0
2017-03-20T19:17:52.026Z,0
2017-03-20T19:18:52.329Z,0
2017-03-20T19:19:52.259Z,0
2017-03-20T19:20:51.955Z,0
2017-03-20T19:21:51.973Z,0
2017-03-20T19:22:52.211Z,0
2017-03-20T19:23:51.879Z,0
2017-03-20T19:24:51.862Z,0
2017-03-20T19:25:52.137Z,0
2017-03-20T19:26:51.810Z,0
2017-03-20T19:28:06.391Z,0
2017-03-20T19:28:52.094Z,0
2017-03-20T19:29:52.060Z,0
2017-03-20T19:30:53.323Z,0
2017-03-20T19:31:51.461Z,0
2017-03-20T19:32:51.756Z,0
2017-03-20T19:33:51.755Z,0
2017-03-20T19:34:51.720Z,0
2017-03-20T19:35:51.931Z,0
2017-03-20T19:36:51.908Z,0
2017-03-20T19:37:51.921Z,0
2017-03-20T19:38:51.426Z,0
2017-03-20T19:39:51.616Z,0
2017-03-20T19:40:51.328Z,0
2017-03-20T19:41:51.517Z,0
2017-03-20T19:42:51.773Z,0
2017-03-20T19:43:51.500Z,0
2017-03-20T19:44:51.736Z,0
2017-03-20T19:45:51.779Z,0
2017-03-20T19:46:51.698Z,0
2017-03-20T19:47:51.344Z,0
2017-03-20T19:48:51.461Z,0
2017-03-20T19:49:51.400Z,0
2017-03-20T19:50:51.588Z,0
2017-03-20T19:51:51.072Z,0
2017-03-20T19:52:51.244Z,0
2017-03-20T19:53:51.233Z,0
2017-03-20T19:54:51.217Z,0
2017-03-20T19:55:51.477Z,0
2017-03-20T19:56:51.161Z,0
2017-03-20T19:57:51.492Z,0
2017-03-20T19:58:51.427Z,0
2017-03-20T19:59:51.104Z,0
2017-03-20T20:00:51.087Z,0
2017-03-20T20:01:51.083Z,0
2017-03-20T20:02:51.348Z,0
2017-03-20T20:03:51.299Z,0
2017-03-20T20:04:51.272Z,0
2017-03-20T20:05:50.952Z,0
2017-03-20T20:06:51.246Z,0
2017-03-20T20:07:51.223Z,0
2017-03-20T20:08:50.929Z,0
2017-03-20T20:09:51.172Z,0
2017-03-20T20:10:51.164Z,0
2017-03-20T20:11:51.120Z,0
2017-03-20T20:12:50.787Z,0
2017-03-20T20:13:51.069Z,0
2017-03-20T20:14:51.071Z,0
2017-03-20T20:15:51.040Z,0
2017-03-20T20:16:51.009Z,0
2017-03-20T20:17:50.692Z,0
2017-03-20T20:18:50.963Z,0
2017-03-20T20:19:50.955Z,0
2017-03-20T20:20:50.900Z,0
2017-03-20T20:21:50.896Z,0
2017-03-20T20:22:50.880Z,0
2017-03-20T20:23:50.621Z,0
2017-03-20T20:24:50.863Z,0
2017-03-20T20:25:50.806Z,0
2017-03-20T20:26:50.479Z,0
2017-03-20T20:27:50.227Z,0
2017-03-20T20:28:50.755Z,0
2017-03-20T20:29:50.706Z,0
2017-03-20T20:30:50.953Z,0
2017-03-20T20:31:50.688Z,0
2017-03-20T20:32:50.382Z,0
2017-03-20T20:33:50.639Z,0
2017-03-20T20:34:50.626Z,0
2017-03-20T20:35:50.635Z,0
2017-03-20T20:36:50.249Z,0
2017-03-20T20:37:50.146Z,0
2017-03-20T20:38:50.974Z,0
2017-03-20T20:39:50.251Z,0
2017-03-20T20:40:50.487Z,0
2017-03-20T20:41:50.137Z,0
2017-03-20T20:42:50.428Z,0
2017-03-20T20:43:49.810Z,0
2017-03-20T20:44:50.076Z,0
2017-03-20T20:45:50.101Z,0
2017-03-20T20:46:50.329Z,0
2017-03-20T20:47:50.322Z,0
2017-03-20T20:48:50.343Z,0
2017-03-20T20:49:49.980Z,0
2017-03-20T20:50:49.644Z,0
2017-03-20T20:51:50.221Z,0
2017-03-20T20:52:49.910Z,0
2017-03-20T20:53:50.201Z,0
2017-03-20T20:54:50.169Z,0
2017-03-20T20:55:49.920Z,0
2017-03-20T20:56:49.820Z,0
2017-03-20T20:57:50.122Z,0
2017-03-20T20:58:49.779Z,0
2017-03-20T20:59:49.747Z,0
2017-03-20T21:00:50.033Z,0
2017-03-20T21:01:50.058Z,0
2017-03-20T21:02:49.072Z,0
2017-03-20T21:03:49.374Z,0
2017-03-20T21:04:49.951Z,0
2017-03-20T21:05:49.932Z,0
2017-03-20T21:06:49.586Z,0
2017-03-20T21:07:49.085Z,0
2017-03-20T21:08:50.017Z,0
2017-03-20T21:09:49.545Z,0
2017-03-20T21:10:49.807Z,0
2017-03-20T21:11:49.796Z,0
2017-03-20T21:12:49.831Z,0
2017-03-20T21:13:49.740Z,0
2017-03-20T21:14:49.736Z,0
2017-03-20T21:15:49.701Z,0
2017-03-20T21:16:49.427Z,0
2017-03-20T21:17:49.709Z,0
2017-03-20T21:18:49.044Z,0
2017-03-20T21:19:49.319Z,0
2017-03-20T21:20:49.583Z,0
2017-03-20T21:21:49.565Z,0
2017-03-20T21:22:49.553Z,0
2017-03-20T21:23:49.226Z,0
2017-03-20T21:24:49.203Z,0
2017-03-20T21:25:49.681Z,0
2017-03-20T21:26:49.449Z,0
2017-03-20T21:27:49.132Z,0
2017-03-20T21:28:49.520Z,0
2017-03-20T21:29:49.383Z,0
2017-03-20T21:30:49.103Z,0
2017-03-20T21:31:49.343Z,0
2017-03-20T21:32:49.347Z,0
2017-03-20T21:33:49.343Z,0
2017-03-20T21:34:49.576Z,0
2017-03-20T21:35:49.245Z,0
2017-03-20T21:36:49.304Z,0
2017-03-20T21:37:49.263Z,0
2017-03-20T21:38:49.187Z,0
2017-03-20T21:39:48.870Z,0
2017-03-20T21:40:49.147Z,0
2017-03-20T21:41:49.129Z,0
2017-03-20T21:42:49.156Z,0
2017-03-20T21:43:49.079Z,0
2017-03-20T21:44:49.049Z,0
2017-03-20T21:45:49.034Z,0
2017-03-20T21:46:49.011Z,0
2017-03-20T21:47:48.994Z,0
2017-03-20T21:48:49.024Z,0
2017-03-20T21:49:48.947Z,0
2017-03-20T21:50:48.931Z,0
2017-03-20T21:51:48.896Z,0
2017-03-20T21:52:48.893Z,0
2017-03-20T21:53:48.865Z,0
2017-03-20T21:54:48.854Z,0
2017-03-20T21:55:48.825Z,0
2017-03-20T21:56:48.787Z,0
2017-03-20T21:57:48.765Z,0
2017-03-20T21:58:49.948Z,0
2017-03-20T21:59:48.733Z,0
2017-03-20T22:00:49.502Z,0
2017-03-20T22:01:48.675Z,0
2017-03-20T22:02:48.699Z,0
2017-03-20T22:03:48.646Z,0
2017-03-20T22:04:48.315Z,0
2017-03-20T22:05:48.595Z,0
2017-03-20T22:06:49.238Z,0
2017-03-20T22:07:48.561Z,0
2017-03-20T22:08:48.533Z,0
2017-03-20T22:09:48.508Z,0
2017-03-20T22:10:48.482Z,0
2017-03-20T22:11:48.461Z,0
2017-03-20T22:12:48.470Z,0
2017-03-20T22:13:48.422Z,0
2017-03-20T22:14:48.101Z,0
2017-03-20T22:15:48.378Z,0
2017-03-20T22:16:48.365Z,0
2017-03-20T22:17:48.359Z,0
2017-03-20T22:18:48.365Z,0
2017-03-20T22:19:49.385Z,0
2017-03-20T22:20:48.261Z,0
2017-03-20T22:21:48.244Z,0
2017-03-20T22:22:48.266Z,0
2017-03-20T22:23:48.215Z,0
2017-03-20T22:24:48.224Z,0
2017-03-20T22:25:48.141Z,0
2017-03-20T22:26:47.825Z,0
2017-03-20T22:27:48.124Z,0
2017-03-20T22:28:48.391Z,0
2017-03-20T22:29:47.777Z,0
2017-03-20T22:30:48.037Z,0
2017-03-20T22:31:47.414Z,0
2017-03-20T22:32:47.703Z,0
2017-03-20T22:33:48.051Z,0
2017-03-20T22:34:47.946Z,0
2017-03-20T22:35:47.930Z,0
2017-03-20T22:36:47.915Z,0
2017-03-20T22:37:47.952Z,0
2017-03-20T22:38:47.569Z,0
2017-03-20T22:39:47.848Z,0
2017-03-20T22:40:47.831Z,0
2017-03-20T22:41:47.537Z,0
2017-03-20T22:42:47.832Z,0
2017-03-20T22:43:47.756Z,0
2017-03-20T22:44:47.738Z,0
2017-03-20T22:45:48.462Z,0
2017-03-20T22:46:47.688Z,0
2017-03-20T22:47:47.706Z,0
2017-03-20T22:48:47.351Z,0
2017-03-20T22:49:47.616Z,0
2017-03-20T22:50:47.598Z,0
2017-03-20T22:51:47.584Z,0
2017-03-20T22:52:47.566Z,0
2017-03-20T22:53:47.556Z,0
2017-03-20T22:54:47.534Z,0
2017-03-20T22:55:47.486Z,0
2017-03-20T22:56:47.464Z,0
2017-03-20T22:57:47.460Z,0
2017-03-20T22:58:47.423Z,0
2017-03-20T22:59:47.393Z,0
2017-03-20T23:00:47.393Z,0
2017-03-20T23:01:47.367Z,0
2017-03-20T23:02:47.336Z,0
2017-03-20T23:03:47.316Z,0
2017-03-20T23:04:47.286Z,0
2017-03-20T23:05:46.661Z,0
2017-03-20T23:06:47.254Z,0
2017-03-20T23:07:46.929Z,0
2017-03-20T23:08:47.218Z,0
2017-03-20T23:09:47.185Z,0
2017-03-20T23:10:47.153Z,0
2017-03-20T23:11:46.821Z,0
2017-03-20T23:12:47.165Z,0
2017-03-20T23:13:46.834Z,0
2017-03-20T23:14:46.469Z,0
2017-03-20T23:15:46.762Z,0
2017-03-20T23:16:47.022Z,0
2017-03-20T23:17:47.001Z,0
2017-03-20T23:18:46.981Z,0
2017-03-20T23:19:46.961Z,0
2017-03-20T23:20:46.917Z,0
2017-03-20T23:21:46.898Z,0
2017-03-20T23:22:46.958Z,0
2017-03-20T23:23:45.968Z,0
2017-03-20T23:24:46.839Z,0
2017-03-20T23:25:46.821Z,0
2017-03-20T23:26:46.792Z,0
2017-03-20T23:27:46.772Z,0
2017-03-20T23:28:46.766Z,0
2017-03-20T23:29:46.731Z,0
2017-03-20T23:30:46.721Z,0
2017-03-20T23:31:46.384Z,0
2017-03-20T23:32:46.361Z,0
2017-03-20T23:33:46.646Z,0
2017-03-20T23:34:46.325Z,0
2017-03-20T23:35:46.307Z,0
2017-03-20T23:36:46.272Z,0
2017-03-20T23:37:46.577Z,0
2017-03-20T23:38:45.935Z,0
2017-03-20T23:39:45.958Z,0
2017-03-20T23:40:46.486Z,0
2017-03-20T23:41:46.452Z,0
2017-03-20T23:42:46.492Z,0
2017-03-20T23:43:46.418Z,0
2017-03-20T23:44:46.106Z,0
2017-03-20T23:45:46.129Z,0
2017-03-20T23:46:45.448Z,0
2017-03-20T23:47:46.333Z,0
2017-03-20T23:48:46.016Z,0
2017-03-20T23:49:46.297Z,0
2017-03-20T23:50:46.615Z,0
2017-03-20T23:51:46.280Z,0
2017-03-20T23:52:46.209Z,0
2017-03-20T23:53:46.200Z,0
2017-03-20T23:54:46.179Z,0
2017-03-20T23:55:46.154Z,0
2017-03-20T23:56:46.130Z,0
2017-03-20T23:57:46.115Z,0
2017-03-20T23:58:46.134Z,0
2017-03-20T23:59:46.063Z,0
